sensor_id;sensor_type;location;lat;lon;timestamp;temperature;humidity
10722;DHT22;5412;59.450;18.124;2022-07-17T00:00:20;15.00;99.90
10722;DHT22;5412;59.450;18.124;2022-07-17T00:02:46;15.00;99.90
10722;DHT22;5412;59.450;18.124;2022-07-17T00:05:14;15.00;99.90
10722;DHT22;5412;59.450;18.124;2022-07-17T00:07:39;15.00;99.90
10722;DHT22;5412;59.450;18.124;2022-07-17T00:10:05;14.90;99.90
10722;DHT22;5412;59.450;18.124;2022-07-17T00:12:31;14.90;99.90
10722;DHT22;5412;59.450;18.124;2022-07-17T00:14:57;14.90;99.90
10722;DHT22;5412;59.450;18.124;2022-07-17T00:17:22;14.90;99.90
10722;DHT22;5412;59.450;18.124;2022-07-17T00:19:48;14.80;99.90
10722;DHT22;5412;59.450;18.124;2022-07-17T00:22:14;14.80;99.90
10722;DHT22;5412;59.450;18.124;2022-07-17T00:24:39;14.80;99.90
10722;DHT22;5412;59.450;18.124;2022-07-17T00:27:05;14.70;99.90
10722;DHT22;5412;59.450;18.124;2022-07-17T00:29:30;14.70;99.90
10722;DHT22;5412;59.450;18.124;2022-07-17T00:31:56;14.70;99.90
10722;DHT22;5412;59.450;18.124;2022-07-17T00:34:22;14.70;99.90
10722;DHT22;5412;59.450;18.124;2022-07-17T00:36:47;14.70;99.90
10722;DHT22;5412;59.450;18.124;2022-07-17T00:39:13;14.70;99.90
10722;DHT22;5412;59.450;18.124;2022-07-17T00:41:39;14.70;99.90
10722;DHT22;5412;59.450;18.124;2022-07-17T00:44:07;14.70;99.90
10722;DHT22;5412;59.450;18.124;2022-07-17T00:46:33;14.70;99.90
10722;DHT22;5412;59.450;18.124;2022-07-17T00:48:59;14.70;99.90
10722;DHT22;5412;59.450;18.124;2022-07-17T00:51:25;14.70;99.90
10722;DHT22;5412;59.450;18.124;2022-07-17T00:53:51;14.70;99.90
10722;DHT22;5412;59.450;18.124;2022-07-17T00:56:17;14.60;99.90
10722;DHT22;5412;59.450;18.124;2022-07-17T00:58:44;14.60;99.90
10722;DHT22;5412;59.450;18.124;2022-07-17T01:01:10;14.60;99.90
10722;DHT22;5412;59.450;18.124;2022-07-17T01:03:36;14.70;99.90
10722;DHT22;5412;59.450;18.124;2022-07-17T01:06:02;14.70;99.90
10722;DHT22;5412;59.450;18.124;2022-07-17T01:08:28;14.60;99.90
10722;DHT22;5412;59.450;18.124;2022-07-17T01:10:54;14.60;99.90
10722;DHT22;5412;59.450;18.124;2022-07-17T01:13:20;14.60;99.90
10722;DHT22;5412;59.450;18.124;2022-07-17T01:15:46;14.60;99.90
10722;DHT22;5412;59.450;18.124;2022-07-17T01:18:13;14.70;99.90
10722;DHT22;5412;59.450;18.124;2022-07-17T01:20:40;14.60;99.90
10722;DHT22;5412;59.450;18.124;2022-07-17T01:23:06;14.70;99.90
10722;DHT22;5412;59.450;18.124;2022-07-17T01:25:32;14.70;99.90
10722;DHT22;5412;59.450;18.124;2022-07-17T01:27:58;14.70;99.90
10722;DHT22;5412;59.450;18.124;2022-07-17T01:30:24;14.70;99.90
10722;DHT22;5412;59.450;18.124;2022-07-17T01:32:50;14.60;99.90
10722;DHT22;5412;59.450;18.124;2022-07-17T01:35:17;14.60;99.90
10722;DHT22;5412;59.450;18.124;2022-07-17T01:37:44;14.60;99.90
10722;DHT22;5412;59.450;18.124;2022-07-17T01:40:11;14.70;99.90
10722;DHT22;5412;59.450;18.124;2022-07-17T01:42:39;14.70;99.90
10722;DHT22;5412;59.450;18.124;2022-07-17T01:45:05;14.70;99.90
10722;DHT22;5412;59.450;18.124;2022-07-17T01:47:31;14.70;99.90
10722;DHT22;5412;59.450;18.124;2022-07-17T01:49:58;14.80;99.90
10722;DHT22;5412;59.450;18.124;2022-07-17T01:52:25;14.80;99.90
10722;DHT22;5412;59.450;18.124;2022-07-17T01:54:52;14.70;99.90
10722;DHT22;5412;59.450;18.124;2022-07-17T01:57:18;14.70;99.90
10722;DHT22;5412;59.450;18.124;2022-07-17T01:59:44;14.70;99.90
10722;DHT22;5412;59.450;18.124;2022-07-17T02:02:10;14.60;99.90
10722;DHT22;5412;59.450;18.124;2022-07-17T02:04:37;14.60;99.90
10722;DHT22;5412;59.450;18.124;2022-07-17T02:07:03;14.60;99.90
10722;DHT22;5412;59.450;18.124;2022-07-17T02:09:29;14.50;99.90
10722;DHT22;5412;59.450;18.124;2022-07-17T02:11:55;14.50;99.90
10722;DHT22;5412;59.450;18.124;2022-07-17T02:14:21;14.50;99.90
10722;DHT22;5412;59.450;18.124;2022-07-17T02:16:47;14.50;99.90
10722;DHT22;5412;59.450;18.124;2022-07-17T02:19:13;14.50;99.90
10722;DHT22;5412;59.450;18.124;2022-07-17T02:21:38;14.50;99.90
10722;DHT22;5412;59.450;18.124;2022-07-17T02:24:05;14.50;99.90
10722;DHT22;5412;59.450;18.124;2022-07-17T02:26:31;14.50;99.90
10722;DHT22;5412;59.450;18.124;2022-07-17T02:28:57;14.50;99.90
10722;DHT22;5412;59.450;18.124;2022-07-17T02:31:22;14.50;99.90
10722;DHT22;5412;59.450;18.124;2022-07-17T02:33:48;14.60;99.90
10722;DHT22;5412;59.450;18.124;2022-07-17T02:36:14;14.60;99.90
10722;DHT22;5412;59.450;18.124;2022-07-17T02:38:39;14.50;99.90
10722;DHT22;5412;59.450;18.124;2022-07-17T02:41:05;14.60;99.90
10722;DHT22;5412;59.450;18.124;2022-07-17T02:43:31;14.60;99.90
10722;DHT22;5412;59.450;18.124;2022-07-17T02:45:57;14.60;99.90
10722;DHT22;5412;59.450;18.124;2022-07-17T02:48:23;14.60;99.90
10722;DHT22;5412;59.450;18.124;2022-07-17T02:50:48;14.70;99.90
10722;DHT22;5412;59.450;18.124;2022-07-17T02:53:14;14.70;99.90
10722;DHT22;5412;59.450;18.124;2022-07-17T02:55:40;14.70;99.90
10722;DHT22;5412;59.450;18.124;2022-07-17T02:58:05;14.70;99.90
10722;DHT22;5412;59.450;18.124;2022-07-17T03:00:31;14.70;99.90
10722;DHT22;5412;59.450;18.124;2022-07-17T03:02:56;14.60;99.90
10722;DHT22;5412;59.450;18.124;2022-07-17T03:05:22;14.60;99.90
10722;DHT22;5412;59.450;18.124;2022-07-17T03:07:48;14.60;99.90
10722;DHT22;5412;59.450;18.124;2022-07-17T03:10:14;14.50;99.90
10722;DHT22;5412;59.450;18.124;2022-07-17T03:12:40;14.50;99.90
10722;DHT22;5412;59.450;18.124;2022-07-17T03:15:06;14.60;99.90
10722;DHT22;5412;59.450;18.124;2022-07-17T03:17:32;14.50;99.90
10722;DHT22;5412;59.450;18.124;2022-07-17T03:19:58;14.40;99.90
10722;DHT22;5412;59.450;18.124;2022-07-17T03:22:24;14.40;99.90
10722;DHT22;5412;59.450;18.124;2022-07-17T03:24:50;14.50;99.90
10722;DHT22;5412;59.450;18.124;2022-07-17T03:27:16;14.40;99.90
10722;DHT22;5412;59.450;18.124;2022-07-17T03:29:42;14.30;99.90
10722;DHT22;5412;59.450;18.124;2022-07-17T03:32:08;14.30;99.90
10722;DHT22;5412;59.450;18.124;2022-07-17T03:34:33;14.10;99.90
10722;DHT22;5412;59.450;18.124;2022-07-17T03:36:59;14.10;99.90
10722;DHT22;5412;59.450;18.124;2022-07-17T03:39:25;14.10;99.90
10722;DHT22;5412;59.450;18.124;2022-07-17T03:41:50;14.20;99.90
10722;DHT22;5412;59.450;18.124;2022-07-17T03:44:16;14.10;99.90
10722;DHT22;5412;59.450;18.124;2022-07-17T03:46:42;14.30;99.90
10722;DHT22;5412;59.450;18.124;2022-07-17T03:49:07;14.40;99.90
10722;DHT22;5412;59.450;18.124;2022-07-17T03:51:35;14.30;99.90
10722;DHT22;5412;59.450;18.124;2022-07-17T03:54:01;14.30;99.90
10722;DHT22;5412;59.450;18.124;2022-07-17T03:56:26;14.30;99.90
10722;DHT22;5412;59.450;18.124;2022-07-17T03:58:52;14.30;99.90
10722;DHT22;5412;59.450;18.124;2022-07-17T04:01:18;14.20;99.90
10722;DHT22;5412;59.450;18.124;2022-07-17T04:03:44;14.30;99.90
10722;DHT22;5412;59.450;18.124;2022-07-17T04:06:09;14.30;99.90
10722;DHT22;5412;59.450;18.124;2022-07-17T04:08:35;14.30;99.90
10722;DHT22;5412;59.450;18.124;2022-07-17T04:11:00;14.40;99.90
10722;DHT22;5412;59.450;18.124;2022-07-17T04:13:26;14.50;99.90
10722;DHT22;5412;59.450;18.124;2022-07-17T04:15:52;14.50;99.90
10722;DHT22;5412;59.450;18.124;2022-07-17T04:18:26;14.60;99.90
10722;DHT22;5412;59.450;18.124;2022-07-17T04:20:54;14.70;99.90
10722;DHT22;5412;59.450;18.124;2022-07-17T04:23:19;14.80;99.90
10722;DHT22;5412;59.450;18.124;2022-07-17T04:25:45;14.90;99.90
10722;DHT22;5412;59.450;18.124;2022-07-17T04:28:11;14.90;99.90
10722;DHT22;5412;59.450;18.124;2022-07-17T04:30:37;15.00;99.90
10722;DHT22;5412;59.450;18.124;2022-07-17T04:33:03;15.00;99.90
10722;DHT22;5412;59.450;18.124;2022-07-17T04:35:29;15.00;99.90
10722;DHT22;5412;59.450;18.124;2022-07-17T04:37:55;15.10;99.90
10722;DHT22;5412;59.450;18.124;2022-07-17T04:40:21;15.10;99.90
10722;DHT22;5412;59.450;18.124;2022-07-17T04:42:47;15.00;99.90
10722;DHT22;5412;59.450;18.124;2022-07-17T04:45:13;14.90;99.90
10722;DHT22;5412;59.450;18.124;2022-07-17T04:47:39;14.80;99.90
10722;DHT22;5412;59.450;18.124;2022-07-17T04:50:06;14.90;99.90
10722;DHT22;5412;59.450;18.124;2022-07-17T04:52:32;14.90;99.90
10722;DHT22;5412;59.450;18.124;2022-07-17T04:54:57;14.80;99.90
10722;DHT22;5412;59.450;18.124;2022-07-17T04:57:23;14.80;99.90
10722;DHT22;5412;59.450;18.124;2022-07-17T04:59:49;14.90;99.90
10722;DHT22;5412;59.450;18.124;2022-07-17T05:02:14;14.90;99.90
10722;DHT22;5412;59.450;18.124;2022-07-17T05:04:40;14.90;99.90
10722;DHT22;5412;59.450;18.124;2022-07-17T05:07:06;14.90;99.90
10722;DHT22;5412;59.450;18.124;2022-07-17T05:09:32;14.80;99.90
10722;DHT22;5412;59.450;18.124;2022-07-17T05:11:58;14.90;99.90
10722;DHT22;5412;59.450;18.124;2022-07-17T05:14:23;15.00;99.90
10722;DHT22;5412;59.450;18.124;2022-07-17T05:16:49;14.70;99.90
10722;DHT22;5412;59.450;18.124;2022-07-17T05:19:14;14.80;99.90
10722;DHT22;5412;59.450;18.124;2022-07-17T05:21:40;14.90;99.90
10722;DHT22;5412;59.450;18.124;2022-07-17T05:24:06;14.90;99.90
10722;DHT22;5412;59.450;18.124;2022-07-17T05:26:31;14.90;99.90
10722;DHT22;5412;59.450;18.124;2022-07-17T05:28:57;14.90;99.90
10722;DHT22;5412;59.450;18.124;2022-07-17T05:31:22;15.00;99.90
10722;DHT22;5412;59.450;18.124;2022-07-17T05:33:48;15.00;99.90
10722;DHT22;5412;59.450;18.124;2022-07-17T05:36:14;15.10;99.90
10722;DHT22;5412;59.450;18.124;2022-07-17T05:38:39;15.20;99.90
10722;DHT22;5412;59.450;18.124;2022-07-17T05:41:05;15.30;99.90
10722;DHT22;5412;59.450;18.124;2022-07-17T05:43:31;15.40;99.90
10722;DHT22;5412;59.450;18.124;2022-07-17T05:45:57;15.50;99.90
10722;DHT22;5412;59.450;18.124;2022-07-17T05:48:24;15.40;99.90
10722;DHT22;5412;59.450;18.124;2022-07-17T05:50:49;15.40;99.90
10722;DHT22;5412;59.450;18.124;2022-07-17T05:53:15;15.30;99.90
10722;DHT22;5412;59.450;18.124;2022-07-17T05:55:42;15.30;99.90
10722;DHT22;5412;59.450;18.124;2022-07-17T05:58:07;15.30;99.90
10722;DHT22;5412;59.450;18.124;2022-07-17T06:00:33;15.50;99.90
10722;DHT22;5412;59.450;18.124;2022-07-17T06:03:00;15.60;99.90
10722;DHT22;5412;59.450;18.124;2022-07-17T06:05:26;15.70;99.90
10722;DHT22;5412;59.450;18.124;2022-07-17T06:07:53;15.80;99.90
10722;DHT22;5412;59.450;18.124;2022-07-17T06:10:19;15.70;99.90
10722;DHT22;5412;59.450;18.124;2022-07-17T06:12:45;15.80;99.90
10722;DHT22;5412;59.450;18.124;2022-07-17T06:15:11;15.70;99.90
10722;DHT22;5412;59.450;18.124;2022-07-17T06:17:37;15.70;99.90
10722;DHT22;5412;59.450;18.124;2022-07-17T06:20:03;15.80;99.90
10722;DHT22;5412;59.450;18.124;2022-07-17T06:22:28;15.80;99.90
10722;DHT22;5412;59.450;18.124;2022-07-17T06:24:54;15.90;99.90
10722;DHT22;5412;59.450;18.124;2022-07-17T06:27:20;16.70;99.90
10722;DHT22;5412;59.450;18.124;2022-07-17T06:29:45;15.80;99.90
10722;DHT22;5412;59.450;18.124;2022-07-17T06:32:11;15.80;99.90
10722;DHT22;5412;59.450;18.124;2022-07-17T06:34:37;16.00;99.90
10722;DHT22;5412;59.450;18.124;2022-07-17T06:37:03;16.00;99.90
10722;DHT22;5412;59.450;18.124;2022-07-17T06:39:29;16.00;99.90
10722;DHT22;5412;59.450;18.124;2022-07-17T06:41:54;16.20;99.90
10722;DHT22;5412;59.450;18.124;2022-07-17T06:44:20;16.00;99.90
10722;DHT22;5412;59.450;18.124;2022-07-17T06:46:46;16.00;99.90
10722;DHT22;5412;59.450;18.124;2022-07-17T06:49:11;16.20;99.90
10722;DHT22;5412;59.450;18.124;2022-07-17T06:51:37;16.30;99.90
10722;DHT22;5412;59.450;18.124;2022-07-17T06:54:03;16.40;99.90
10722;DHT22;5412;59.450;18.124;2022-07-17T06:56:28;16.40;99.90
10722;DHT22;5412;59.450;18.124;2022-07-17T06:58:54;16.40;99.90
10722;DHT22;5412;59.450;18.124;2022-07-17T07:01:20;16.50;99.90
10722;DHT22;5412;59.450;18.124;2022-07-17T07:03:45;16.60;99.90
10722;DHT22;5412;59.450;18.124;2022-07-17T07:06:11;16.60;99.90
10722;DHT22;5412;59.450;18.124;2022-07-17T07:08:37;16.70;99.90
10722;DHT22;5412;59.450;18.124;2022-07-17T07:11:03;16.80;99.90
10722;DHT22;5412;59.450;18.124;2022-07-17T07:13:29;16.90;99.90
10722;DHT22;5412;59.450;18.124;2022-07-17T07:15:54;16.90;99.90
10722;DHT22;5412;59.450;18.124;2022-07-17T07:18:21;16.80;99.90
10722;DHT22;5412;59.450;18.124;2022-07-17T07:20:46;17.00;99.90
10722;DHT22;5412;59.450;18.124;2022-07-17T07:23:12;17.20;99.90
10722;DHT22;5412;59.450;18.124;2022-07-17T07:25:38;17.10;99.90
10722;DHT22;5412;59.450;18.124;2022-07-17T07:28:04;16.90;99.90
10722;DHT22;5412;59.450;18.124;2022-07-17T07:30:30;16.80;99.90
10722;DHT22;5412;59.450;18.124;2022-07-17T07:32:55;16.90;99.90
10722;DHT22;5412;59.450;18.124;2022-07-17T07:35:21;17.00;99.90
10722;DHT22;5412;59.450;18.124;2022-07-17T07:37:48;17.20;99.90
10722;DHT22;5412;59.450;18.124;2022-07-17T07:40:14;17.40;99.90
10722;DHT22;5412;59.450;18.124;2022-07-17T07:42:39;17.20;99.90
10722;DHT22;5412;59.450;18.124;2022-07-17T07:45:05;17.20;99.90
10722;DHT22;5412;59.450;18.124;2022-07-17T07:47:31;17.40;99.90
10722;DHT22;5412;59.450;18.124;2022-07-17T07:49:57;17.40;99.90
10722;DHT22;5412;59.450;18.124;2022-07-17T07:52:23;17.60;99.90
10722;DHT22;5412;59.450;18.124;2022-07-17T07:54:49;17.50;99.90
10722;DHT22;5412;59.450;18.124;2022-07-17T07:57:14;17.40;99.90
10722;DHT22;5412;59.450;18.124;2022-07-17T07:59:40;17.30;99.90
10722;DHT22;5412;59.450;18.124;2022-07-17T08:02:06;17.50;99.90
10722;DHT22;5412;59.450;18.124;2022-07-17T08:04:32;17.40;99.90
10722;DHT22;5412;59.450;18.124;2022-07-17T08:06:57;17.50;99.90
10722;DHT22;5412;59.450;18.124;2022-07-17T08:09:23;17.60;99.90
10722;DHT22;5412;59.450;18.124;2022-07-17T08:11:49;18.20;99.90
10722;DHT22;5412;59.450;18.124;2022-07-17T08:14:15;17.70;99.90
10722;DHT22;5412;59.450;18.124;2022-07-17T08:16:40;17.90;99.90
10722;DHT22;5412;59.450;18.124;2022-07-17T08:19:06;17.80;99.90
10722;DHT22;5412;59.450;18.124;2022-07-17T08:21:31;17.90;99.90
10722;DHT22;5412;59.450;18.124;2022-07-17T08:23:57;18.00;99.90
10722;DHT22;5412;59.450;18.124;2022-07-17T08:26:23;17.80;99.90
10722;DHT22;5412;59.450;18.124;2022-07-17T08:28:48;17.60;99.90
10722;DHT22;5412;59.450;18.124;2022-07-17T08:31:14;17.70;99.90
10722;DHT22;5412;59.450;18.124;2022-07-17T08:33:39;18.00;99.90
10722;DHT22;5412;59.450;18.124;2022-07-17T08:36:05;17.90;99.90
10722;DHT22;5412;59.450;18.124;2022-07-17T08:38:32;17.90;99.90
10722;DHT22;5412;59.450;18.124;2022-07-17T08:40:57;18.00;99.90
10722;DHT22;5412;59.450;18.124;2022-07-17T08:43:24;18.20;99.90
10722;DHT22;5412;59.450;18.124;2022-07-17T08:45:51;18.10;99.90
10722;DHT22;5412;59.450;18.124;2022-07-17T08:48:18;18.40;99.90
10722;DHT22;5412;59.450;18.124;2022-07-17T08:50:45;18.50;99.90
10722;DHT22;5412;59.450;18.124;2022-07-17T08:53:10;18.70;99.90
10722;DHT22;5412;59.450;18.124;2022-07-17T08:55:36;18.50;99.90
10722;DHT22;5412;59.450;18.124;2022-07-17T08:58:02;18.30;99.90
10722;DHT22;5412;59.450;18.124;2022-07-17T09:00:30;18.30;99.90
10722;DHT22;5412;59.450;18.124;2022-07-17T09:03:05;18.00;99.90
10722;DHT22;5412;59.450;18.124;2022-07-17T09:05:36;18.20;99.90
10722;DHT22;5412;59.450;18.124;2022-07-17T09:08:03;18.50;99.90
10722;DHT22;5412;59.450;18.124;2022-07-17T09:10:40;18.50;99.90
10722;DHT22;5412;59.450;18.124;2022-07-17T09:15:43;18.50;99.90
10722;DHT22;5412;59.450;18.124;2022-07-17T09:18:09;18.60;99.90
10722;DHT22;5412;59.450;18.124;2022-07-17T09:20:34;18.80;99.90
10722;DHT22;5412;59.450;18.124;2022-07-17T09:23:04;18.80;99.90
10722;DHT22;5412;59.450;18.124;2022-07-17T09:28:04;19.00;99.90
10722;DHT22;5412;59.450;18.124;2022-07-17T09:30:30;19.00;99.90
10722;DHT22;5412;59.450;18.124;2022-07-17T09:32:57;18.90;99.90
10722;DHT22;5412;59.450;18.124;2022-07-17T09:35:23;18.90;99.90
10722;DHT22;5412;59.450;18.124;2022-07-17T09:37:51;18.80;99.90
10722;DHT22;5412;59.450;18.124;2022-07-17T09:40:18;18.80;99.90
10722;DHT22;5412;59.450;18.124;2022-07-17T09:43:03;18.90;99.90
10722;DHT22;5412;59.450;18.124;2022-07-17T09:45:32;19.00;99.90
10722;DHT22;5412;59.450;18.124;2022-07-17T09:47:58;18.90;99.90
10722;DHT22;5412;59.450;18.124;2022-07-17T09:50:25;19.00;99.90
10722;DHT22;5412;59.450;18.124;2022-07-17T09:52:52;19.20;99.90
10722;DHT22;5412;59.450;18.124;2022-07-17T09:55:22;19.30;99.90
10722;DHT22;5412;59.450;18.124;2022-07-17T09:57:54;19.00;99.90
10722;DHT22;5412;59.450;18.124;2022-07-17T10:00:21;19.00;99.90
10722;DHT22;5412;59.450;18.124;2022-07-17T10:02:48;19.00;99.90
10722;DHT22;5412;59.450;18.124;2022-07-17T10:05:14;19.00;99.90
10722;DHT22;5412;59.450;18.124;2022-07-17T10:07:41;19.00;99.90
10722;DHT22;5412;59.450;18.124;2022-07-17T10:10:08;19.20;99.90
10722;DHT22;5412;59.450;18.124;2022-07-17T10:12:37;19.20;99.90
10722;DHT22;5412;59.450;18.124;2022-07-17T10:15:04;19.20;99.90
10722;DHT22;5412;59.450;18.124;2022-07-17T10:17:30;19.20;99.90
10722;DHT22;5412;59.450;18.124;2022-07-17T10:19:57;19.10;99.90
10722;DHT22;5412;59.450;18.124;2022-07-17T10:22:24;19.00;99.90
10722;DHT22;5412;59.450;18.124;2022-07-17T10:24:56;19.10;99.90
10722;DHT22;5412;59.450;18.124;2022-07-17T10:27:25;19.10;99.90
10722;DHT22;5412;59.450;18.124;2022-07-17T10:30:05;19.10;99.90
10722;DHT22;5412;59.450;18.124;2022-07-17T10:32:32;19.00;99.90
10722;DHT22;5412;59.450;18.124;2022-07-17T10:35:00;19.00;99.90
10722;DHT22;5412;59.450;18.124;2022-07-17T10:37:47;19.10;99.90
10722;DHT22;5412;59.450;18.124;2022-07-17T10:40:24;19.30;99.90
10722;DHT22;5412;59.450;18.124;2022-07-17T10:45:31;19.50;99.90
10722;DHT22;5412;59.450;18.124;2022-07-17T10:48:05;19.50;99.90
10722;DHT22;5412;59.450;18.124;2022-07-17T10:50:38;19.30;99.90
10722;DHT22;5412;59.450;18.124;2022-07-17T10:55:38;19.50;99.90
10722;DHT22;5412;59.450;18.124;2022-07-17T10:59:02;19.40;99.90
10722;DHT22;5412;59.450;18.124;2022-07-17T11:03:29;19.40;99.10
10722;DHT22;5412;59.450;18.124;2022-07-17T11:06:05;19.20;98.40
10722;DHT22;5412;59.450;18.124;2022-07-17T11:08:30;19.10;98.00
10722;DHT22;5412;59.450;18.124;2022-07-17T11:10:57;19.10;98.60
10722;DHT22;5412;59.450;18.124;2022-07-17T11:13:22;19.10;99.00
10722;DHT22;5412;59.450;18.124;2022-07-17T11:15:49;19.10;99.50
10722;DHT22;5412;59.450;18.124;2022-07-17T11:18:19;19.20;99.90
10722;DHT22;5412;59.450;18.124;2022-07-17T11:23:14;19.40;99.40
10722;DHT22;5412;59.450;18.124;2022-07-17T11:25:50;19.50;99.30
10722;DHT22;5412;59.450;18.124;2022-07-17T11:28:15;19.50;99.30
10722;DHT22;5412;59.450;18.124;2022-07-17T11:30:51;19.60;99.40
10722;DHT22;5412;59.450;18.124;2022-07-17T11:33:17;19.80;99.80
10722;DHT22;5412;59.450;18.124;2022-07-17T11:35:46;19.90;99.60
10722;DHT22;5412;59.450;18.124;2022-07-17T11:38:12;19.80;99.20
10722;DHT22;5412;59.450;18.124;2022-07-17T11:40:47;19.60;99.20
10722;DHT22;5412;59.450;18.124;2022-07-17T11:43:13;19.70;99.90
10722;DHT22;5412;59.450;18.124;2022-07-17T11:45:39;19.80;99.90
10722;DHT22;5412;59.450;18.124;2022-07-17T11:48:05;20.00;99.80
10722;DHT22;5412;59.450;18.124;2022-07-17T11:50:31;20.20;98.60
10722;DHT22;5412;59.450;18.124;2022-07-17T11:53:01;20.10;98.20
10722;DHT22;5412;59.450;18.124;2022-07-17T11:55:40;20.00;98.70
10722;DHT22;5412;59.450;18.124;2022-07-17T11:58:06;20.00;98.60
10722;DHT22;5412;59.450;18.124;2022-07-17T12:00:33;20.00;97.70
10722;DHT22;5412;59.450;18.124;2022-07-17T12:03:03;19.80;98.20
10722;DHT22;5412;59.450;18.124;2022-07-17T12:05:31;20.00;98.90
10722;DHT22;5412;59.450;18.124;2022-07-17T12:07:57;20.10;98.70
10722;DHT22;5412;59.450;18.124;2022-07-17T12:10:24;20.00;97.80
10722;DHT22;5412;59.450;18.124;2022-07-17T12:15:44;19.70;98.60
10722;DHT22;5412;59.450;18.124;2022-07-17T12:18:22;19.80;99.10
10722;DHT22;5412;59.450;18.124;2022-07-17T12:20:52;20.10;99.90
10722;DHT22;5412;59.450;18.124;2022-07-17T12:26:11;20.70;99.90
10722;DHT22;5412;59.450;18.124;2022-07-17T12:28:38;21.10;99.90
10722;DHT22;5412;59.450;18.124;2022-07-17T12:31:05;21.40;99.60
10722;DHT22;5412;59.450;18.124;2022-07-17T12:33:32;21.50;99.20
10722;DHT22;5412;59.450;18.124;2022-07-17T12:35:58;21.80;98.80
10722;DHT22;5412;59.450;18.124;2022-07-17T12:38:23;21.80;99.00
10722;DHT22;5412;59.450;18.124;2022-07-17T12:40:49;21.50;98.10
10722;DHT22;5412;59.450;18.124;2022-07-17T12:43:14;21.60;98.90
10722;DHT22;5412;59.450;18.124;2022-07-17T12:45:40;22.10;98.10
10722;DHT22;5412;59.450;18.124;2022-07-17T12:48:05;22.30;97.40
10722;DHT22;5412;59.450;18.124;2022-07-17T12:50:31;22.00;97.20
10722;DHT22;5412;59.450;18.124;2022-07-17T12:52:58;21.70;97.00
10722;DHT22;5412;59.450;18.124;2022-07-17T12:55:24;21.80;96.60
10722;DHT22;5412;59.450;18.124;2022-07-17T12:57:49;22.10;97.10
10722;DHT22;5412;59.450;18.124;2022-07-17T13:00:15;22.20;96.70
10722;DHT22;5412;59.450;18.124;2022-07-17T13:02:41;22.80;96.10
10722;DHT22;5412;59.450;18.124;2022-07-17T13:05:07;23.10;95.40
10722;DHT22;5412;59.450;18.124;2022-07-17T13:07:33;23.30;95.00
10722;DHT22;5412;59.450;18.124;2022-07-17T13:09:59;23.50;94.30
10722;DHT22;5412;59.450;18.124;2022-07-17T13:12:24;24.00;94.30
10722;DHT22;5412;59.450;18.124;2022-07-17T13:14:50;23.70;92.50
10722;DHT22;5412;59.450;18.124;2022-07-17T13:17:16;23.70;92.10
10722;DHT22;5412;59.450;18.124;2022-07-17T13:19:42;23.60;92.20
10722;DHT22;5412;59.450;18.124;2022-07-17T13:22:07;23.80;91.90
10722;DHT22;5412;59.450;18.124;2022-07-17T13:24:33;23.70;91.60
10722;DHT22;5412;59.450;18.124;2022-07-17T13:26:59;23.80;91.70
10722;DHT22;5412;59.450;18.124;2022-07-17T13:29:25;23.60;91.30
10722;DHT22;5412;59.450;18.124;2022-07-17T13:31:54;23.80;91.40
10722;DHT22;5412;59.450;18.124;2022-07-17T13:34:21;24.10;90.20
10722;DHT22;5412;59.450;18.124;2022-07-17T13:36:48;24.50;90.00
10722;DHT22;5412;59.450;18.124;2022-07-17T13:39:14;25.00;88.20
10722;DHT22;5412;59.450;18.124;2022-07-17T13:41:40;25.10;88.10
10722;DHT22;5412;59.450;18.124;2022-07-17T13:44:06;25.40;85.00
10722;DHT22;5412;59.450;18.124;2022-07-17T13:46:32;25.20;84.60
10722;DHT22;5412;59.450;18.124;2022-07-17T13:48:58;25.10;84.70
10722;DHT22;5412;59.450;18.124;2022-07-17T13:51:25;25.70;82.10
10722;DHT22;5412;59.450;18.124;2022-07-17T13:53:51;26.10;82.20
10722;DHT22;5412;59.450;18.124;2022-07-17T13:56:17;25.80;79.70
10722;DHT22;5412;59.450;18.124;2022-07-17T13:58:42;26.00;79.20
10722;DHT22;5412;59.450;18.124;2022-07-17T14:01:11;25.80;77.70
10722;DHT22;5412;59.450;18.124;2022-07-17T14:03:37;25.90;78.80
10722;DHT22;5412;59.450;18.124;2022-07-17T14:06:02;25.50;78.70
10722;DHT22;5412;59.450;18.124;2022-07-17T14:08:28;24.70;80.30
10722;DHT22;5412;59.450;18.124;2022-07-17T14:10:54;25.00;80.40
10722;DHT22;5412;59.450;18.124;2022-07-17T14:13:20;25.30;78.80
10722;DHT22;5412;59.450;18.124;2022-07-17T14:15:46;24.70;79.00
10722;DHT22;5412;59.450;18.124;2022-07-17T14:18:11;25.30;78.90
10722;DHT22;5412;59.450;18.124;2022-07-17T14:20:37;25.00;78.50
10722;DHT22;5412;59.450;18.124;2022-07-17T14:23:03;24.30;79.20
10722;DHT22;5412;59.450;18.124;2022-07-17T14:25:29;24.00;80.90
10722;DHT22;5412;59.450;18.124;2022-07-17T14:27:54;23.50;82.50
10722;DHT22;5412;59.450;18.124;2022-07-17T14:30:20;23.20;83.30
10722;DHT22;5412;59.450;18.124;2022-07-17T14:32:46;22.90;84.50
10722;DHT22;5412;59.450;18.124;2022-07-17T14:35:11;23.10;83.70
10722;DHT22;5412;59.450;18.124;2022-07-17T14:37:37;23.00;83.60
10722;DHT22;5412;59.450;18.124;2022-07-17T14:40:03;23.30;83.20
10722;DHT22;5412;59.450;18.124;2022-07-17T14:42:29;24.20;81.20
10722;DHT22;5412;59.450;18.124;2022-07-17T14:44:54;25.10;80.00
10722;DHT22;5412;59.450;18.124;2022-07-17T14:47:20;25.90;77.60
10722;DHT22;5412;59.450;18.124;2022-07-17T14:49:46;25.80;76.30
10722;DHT22;5412;59.450;18.124;2022-07-17T14:52:12;25.20;75.50
10722;DHT22;5412;59.450;18.124;2022-07-17T14:54:38;24.50;78.20
10722;DHT22;5412;59.450;18.124;2022-07-17T14:57:04;24.10;78.20
10722;DHT22;5412;59.450;18.124;2022-07-17T14:59:29;23.80;80.60
10722;DHT22;5412;59.450;18.124;2022-07-17T15:01:55;23.10;80.60
10722;DHT22;5412;59.450;18.124;2022-07-17T15:04:20;23.00;81.50
10722;DHT22;5412;59.450;18.124;2022-07-17T15:06:46;22.80;82.10
10722;DHT22;5412;59.450;18.124;2022-07-17T15:09:12;22.70;80.70
10722;DHT22;5412;59.450;18.124;2022-07-17T15:11:38;22.50;80.90
10722;DHT22;5412;59.450;18.124;2022-07-17T15:14:04;22.40;81.60
10722;DHT22;5412;59.450;18.124;2022-07-17T15:16:30;22.30;82.90
10722;DHT22;5412;59.450;18.124;2022-07-17T15:18:58;22.30;83.10
10722;DHT22;5412;59.450;18.124;2022-07-17T15:21:24;22.10;84.90
10722;DHT22;5412;59.450;18.124;2022-07-17T15:23:50;22.10;86.30
10722;DHT22;5412;59.450;18.124;2022-07-17T15:26:15;22.60;85.70
10722;DHT22;5412;59.450;18.124;2022-07-17T15:28:41;22.80;83.40
10722;DHT22;5412;59.450;18.124;2022-07-17T15:31:07;23.00;84.70
10722;DHT22;5412;59.450;18.124;2022-07-17T15:33:32;22.60;85.60
10722;DHT22;5412;59.450;18.124;2022-07-17T15:36:00;22.30;86.00
10722;DHT22;5412;59.450;18.124;2022-07-17T15:38:26;22.20;87.30
10722;DHT22;5412;59.450;18.124;2022-07-17T15:40:52;22.20;88.10
10722;DHT22;5412;59.450;18.124;2022-07-17T15:43:17;22.20;88.20
10722;DHT22;5412;59.450;18.124;2022-07-17T15:45:43;21.90;88.90